Julianehab, Greenland
Current Conditions -  °F | °C
As of 3:50 AM on Monday 26 Jan 2015 (Local Time) from BGGH Reporting Station
Snow Showers Snow Showers  
Wind Chill: -7°   Ceiling: Unl
Heat Index: 12°   Visibility: 1.2mi
Dew Point:   Wind: 22mph
Humidity: 73%   Direction: 10°N
Pressure: 28.88"   Gusts: NA
Location:  60.75°N, 46.01°W
Report Text: BGGH 260550Z AUTO 01019KT 2000NDV -SHSN FEW091/// M11/M15 Q0978
Loading
Personal Weather Stations






























Interactive Weather Map New forecast layout! Learn more

10-Day Weather Forecast

Advertisements
Track Severe Weather on mobile